Time;durP1;ratioP1;P1;durP2;ratioP2;P2;SDS_P1;SDS_P2;PMS_P1;PMS_P2;Temp;Humidity;BMP_temperature;BMP_pressure;BME280_temperature;BME280_humidity;BME280_pressure;Samples;Min_cycle;Max_cycle;Signal;HPM_P1;HPM_P2
2023/10/22 00:00:42;;;;;;;;;0.00;0.00;;;;;;;;5103331;27;45427;-80
2023/10/22 00:03:07;;;;;;;;;1.00;1.00;;;;;;;;5101589;27;46324;-83
2023/10/22 00:05:32;;;;;;;;;1.25;0.75;;;;;;;;5102425;27;48194;-80
2023/10/22 00:07:57;;;;;;;;;3.50;1.00;;;;;;;;5101917;27;45845;-80
2023/10/22 00:10:23;;;;;;;;;2.00;2.00;;;;;;;;5103204;27;45287;-81
2023/10/22 00:12:48;;;;;;;;;4.67;1.00;;;;;;;;5100631;27;45999;-81
2023/10/22 00:15:14;;;;;;;;;4.25;3.25;;;;;;;;5102596;27;45352;-81
2023/10/22 00:17:41;;;;;;;;;2.75;1.00;;;;;;;;5101774;27;45715;-79
2023/10/22 00:20:07;;;;;;;;;1.00;1.00;;;;;;;;5100412;27;45244;-80
2023/10/22 00:22:32;;;;;;;;;2.75;2.00;;;;;;;;5101933;27;45254;-81
2023/10/22 00:24:57;;;;;;;;;3.25;3.00;;;;;;;;5102365;27;46360;-80
2023/10/22 00:27:22;;;;;;;;;2.00;2.00;;;;;;;;5100572;27;45247;-81
2023/10/22 00:29:47;;;;;;;;;4.00;2.00;;;;;;;;5087300;27;45259;-80
2023/10/22 00:32:13;;;;;;;;;6.67;4.00;;;;;;;;5080065;28;45957;-81
2023/10/22 00:34:38;;;;;;;;;3.50;2.00;;;;;;;;5082174;28;45382;-81
2023/10/22 00:37:03;;;;;;;;;6.25;2.00;;;;;;;;5076727;28;45306;-81
2023/10/22 00:39:28;;;;;;;;;2.75;2.75;;;;;;;;5060161;28;45302;-80
2023/10/22 00:41:53;;;;;;;;;3.00;2.75;;;;;;;;5063279;28;45205;-80
2023/10/22 00:44:19;;;;;;;;;3.75;2.25;;;;;;;;5059433;28;48348;-82
2023/10/22 00:46:47;;;;;;;;;3.00;1.00;;;;;;;;5059655;28;45249;-80
2023/10/22 00:49:12;;;;;;;;;3.00;0.75;;;;;;;;5061304;28;45354;-84
2023/10/22 00:51:38;;;;;;;;;4.00;2.00;;;;;;;;5061233;28;45664;-80
2023/10/22 00:54:04;;;;;;;;;2.00;2.00;;;;;;;;5059324;28;45890;-80
2023/10/22 00:56:29;;;;;;;;;3.00;3.00;;;;;;;;5074885;28;45473;-81
2023/10/22 00:58:55;;;;;;;;;2.33;2.33;;;;;;;;5080392;28;45350;-82
2023/10/22 01:01:21;;;;;;;;;1.00;1.00;;;;;;;;5082842;28;47467;-84
2023/10/22 01:03:46;;;;;;;;;1.50;1.50;;;;;;;;5082880;28;46553;-82
2023/10/22 01:06:15;;;;;;;;;1.00;1.00;;;;;;;;5083139;28;45251;-81
2023/10/22 01:08:40;;;;;;;;;6.00;3.00;;;;;;;;5081462;28;45203;-83
2023/10/22 01:11:06;;;;;;;;;5.00;2.67;;;;;;;;5080551;28;45466;-82
2023/10/22 01:13:31;;;;;;;;;1.00;1.00;;;;;;;;5082113;28;45401;-80
2023/10/22 01:15:57;;;;;;;;;1.50;1.00;;;;;;;;5082147;28;45399;-81
2023/10/22 01:18:22;;;;;;;;;1.50;1.25;;;;;;;;5079724;28;45504;-81
2023/10/22 01:20:48;;;;;;;;;0.75;0.25;;;;;;;;5080370;28;45402;-80
2023/10/22 01:23:13;;;;;;;;;2.00;0.50;;;;;;;;5081144;28;45392;-81
2023/10/22 01:25:41;;;;;;;;;3.00;1.00;;;;;;;;5079365;28;45319;-81
2023/10/22 01:28:06;;;;;;;;;1.50;1.50;;;;;;;;5082028;28;45224;-83
2023/10/22 01:30:31;;;;;;;;;3.00;2.00;;;;;;;;5079325;28;46080;-82
2023/10/22 01:32:57;;;;;;;;;1.50;1.50;;;;;;;;5079281;28;48033;-81
2023/10/22 01:35:22;;;;;;;;;1.25;1.25;;;;;;;;5081063;28;45280;-84
2023/10/22 01:37:47;;;;;;;;;5.25;2.00;;;;;;;;5082097;28;45208;-82
2023/10/22 01:40:13;;;;;;;;;0.75;0.00;;;;;;;;5080234;28;46241;-83
2023/10/22 01:42:41;;;;;;;;;2.75;1.75;;;;;;;;5082323;28;45309;-82
2023/10/22 01:45:07;;;;;;;;;3.00;3.00;;;;;;;;5079181;28;45442;-82
2023/10/22 01:47:32;;;;;;;;;2.00;1.00;;;;;;;;5079861;28;45238;-81
2023/10/22 01:49:57;;;;;;;;;2.00;2.00;;;;;;;;5080537;28;45467;-82
2023/10/22 01:52:23;;;;;;;;;3.00;1.50;;;;;;;;5080948;28;45348;-82
2023/10/22 01:54:49;;;;;;;;;3.25;3.25;;;;;;;;5080102;28;45322;-81
2023/10/22 01:57:15;;;;;;;;;1.25;0.75;;;;;;;;5081799;28;45323;-81
2023/10/22 01:59:41;;;;;;;;;6.50;2.50;;;;;;;;5078659;28;46370;-81
2023/10/22 02:02:07;;;;;;;;;3.00;2.50;;;;;;;;5079600;28;48154;-80
2023/10/22 02:04:32;;;;;;;;;2.00;1.25;;;;;;;;5080372;28;45551;-80
2023/10/22 02:06:57;;;;;;;;;2.25;2.25;;;;;;;;5080069;28;45165;-78
2023/10/22 02:09:23;;;;;;;;;3.75;1.50;;;;;;;;5079826;27;45235;-79
2023/10/22 02:11:48;;;;;;;;;3.25;2.00;;;;;;;;5081387;28;47545;-79
2023/10/22 02:14:13;;;;;;;;;3.25;2.00;;;;;;;;5082437;28;45332;-81
2023/10/22 02:16:41;;;;;;;;;4.00;3.00;;;;;;;;5083750;28;45188;-80
2023/10/22 02:19:06;;;;;;;;;2.67;1.00;;;;;;;;5083855;28;45457;-79
2023/10/22 02:21:32;;;;;;;;;2.50;1.75;;;;;;;;5082586;28;47108;-79
2023/10/22 02:23:57;;;;;;;;;5.50;1.75;;;;;;;;5081791;28;45703;-79
2023/10/22 02:26:23;;;;;;;;;4.00;2.00;;;;;;;;5082055;28;45298;-79
2023/10/22 02:28:48;;;;;;;;;1.67;1.67;;;;;;;;5086935;27;46161;-79
2023/10/22 02:31:13;;;;;;;;;3.67;3.67;;;;;;;;5103513;27;45344;-79
2023/10/22 02:33:41;;;;;;;;;2.75;1.75;;;;;;;;5102238;27;46308;-80
2023/10/22 02:36:07;;;;;;;;;1.25;1.00;;;;;;;;5102219;27;45245;-80
2023/10/22 02:38:33;;;;;;;;;4.00;3.50;;;;;;;;5103786;27;45249;-79
2023/10/22 02:40:58;;;;;;;;;4.00;2.00;;;;;;;;5101762;27;48534;-79
2023/10/22 02:43:24;;;;;;;;;2.00;2.00;;;;;;;;5103159;27;45232;-78
2023/10/22 02:45:49;;;;;;;;;2.75;1.00;;;;;;;;5103365;27;45318;-79
2023/10/22 02:48:14;;;;;;;;;2.00;1.75;;;;;;;;5102055;27;47008;-79
2023/10/22 02:50:40;;;;;;;;;1.00;1.00;;;;;;;;5099480;27;46704;-80
2023/10/22 02:53:06;;;;;;;;;2.25;1.00;;;;;;;;5082160;28;45639;-80
2023/10/22 02:55:32;;;;;;;;;1.25;1.25;;;;;;;;5082683;28;45404;-79
2023/10/22 02:57:57;;;;;;;;;0.50;0.50;;;;;;;;5081039;28;47300;-79
2023/10/22 03:00:22;;;;;;;;;1.50;0.75;;;;;;;;5082528;28;45519;-79
2023/10/22 03:02:47;;;;;;;;;1.33;1.00;;;;;;;;5082535;28;45313;-79
2023/10/22 03:05:12;;;;;;;;;1.33;1.33;;;;;;;;5083110;28;45241;-80
2023/10/22 03:07:37;;;;;;;;;5.00;2.33;;;;;;;;5083381;28;45374;-79
2023/10/22 03:10:03;;;;;;;;;4.50;1.50;;;;;;;;5083183;28;46110;-80
2023/10/22 03:12:29;;;;;;;;;0.75;0.00;;;;;;;;5081079;28;45777;-79
2023/10/22 03:14:54;;;;;;;;;2.00;2.00;;;;;;;;5081030;28;45401;-78
2023/10/22 03:17:19;;;;;;;;;1.00;1.00;;;;;;;;5081344;28;46018;-78
2023/10/22 03:19:45;;;;;;;;;3.00;1.00;;;;;;;;5081822;28;46194;-78
2023/10/22 03:22:10;;;;;;;;;0.25;0.25;;;;;;;;5080287;28;45374;-78
2023/10/22 03:24:36;;;;;;;;;1.75;1.75;;;;;;;;5080905;28;45248;-78
2023/10/22 03:27:04;;;;;;;;;1.00;1.00;;;;;;;;5082154;28;45204;-78
2023/10/22 03:29:29;;;;;;;;;1.50;1.50;;;;;;;;5092014;27;46228;-79
2023/10/22 03:31:54;;;;;;;;;2.00;1.00;;;;;;;;5102393;27;45213;-78
2023/10/22 03:34:19;;;;;;;;;4.33;1.33;;;;;;;;5102738;27;45396;-79
2023/10/22 03:36:44;;;;;;;;;1.25;0.50;;;;;;;;5102251;27;45432;-79
2023/10/22 03:39:10;;;;;;;;;2.75;0.00;;;;;;;;5102777;27;45452;-79
2023/10/22 03:41:35;;;;;;;;;1.00;1.00;;;;;;;;5100833;27;45287;-79
2023/10/22 03:44:00;;;;;;;;;1.50;1.50;;;;;;;;5100954;27;45339;-78
2023/10/22 03:46:26;;;;;;;;;3.00;2.00;;;;;;;;5102131;27;45278;-79
2023/10/22 03:48:51;;;;;;;;;3.00;1.25;;;;;;;;5102872;27;45406;-79
2023/10/22 03:51:16;;;;;;;;;1.25;0.50;;;;;;;;5101496;27;45333;-79
2023/10/22 03:53:41;;;;;;;;;4.00;1.50;;;;;;;;5102879;27;45522;-79
2023/10/22 03:56:09;;;;;;;;;2.00;1.75;;;;;;;;5102703;27;45284;-79
2023/10/22 03:58:35;;;;;;;;;0.00;0.00;;;;;;;;5102186;27;46172;-79
2023/10/22 04:01:00;;;;;;;;;0.67;0.67;;;;;;;;5103488;27;45343;-79
2023/10/22 04:03:25;;;;;;;;;1.00;1.00;;;;;;;;5100814;27;45261;-79
2023/10/22 04:05:55;;;;;;;;;1.25;0.75;;;;;;;;5101470;27;45472;-79
2023/10/22 04:08:20;;;;;;;;;0.00;0.00;;;;;;;;5101762;27;47226;-78
2023/10/22 04:10:46;;;;;;;;;1.50;0.50;;;;;;;;5101728;27;45310;-80
2023/10/22 04:13:11;;;;;;;;;2.00;0.67;;;;;;;;5102333;27;45293;-79
2023/10/22 04:15:39;;;;;;;;;0.00;0.00;;;;;;;;5101765;27;45258;-79
2023/10/22 04:18:04;;;;;;;;;0.33;0.33;;;;;;;;5101896;27;46549;-79
2023/10/22 04:20:33;;;;;;;;;2.33;2.00;;;;;;;;5100123;27;45393;-79
2023/10/22 04:22:58;;;;;;;;;0.33;0.33;;;;;;;;5101772;27;45409;-79
2023/10/22 04:25:24;;;;;;;;;3.00;1.33;;;;;;;;5101489;27;45469;-79
2023/10/22 04:27:49;;;;;;;;;2.75;1.00;;;;;;;;5100277;27;47135;-78
2023/10/22 04:30:14;;;;;;;;;3.50;2.25;;;;;;;;5083386;27;46092;-78
2023/10/22 04:32:40;;;;;;;;;1.00;0.25;;;;;;;;5081130;28;45318;-79
2023/10/22 04:35:05;;;;;;;;;0.50;0.00;;;;;;;;5080963;28;45548;-79
2023/10/22 04:37:30;;;;;;;;;1.25;0.00;;;;;;;;5081519;28;46271;-78
2023/10/22 04:39:56;;;;;;;;;2.00;2.00;;;;;;;;5080948;28;45223;-78
2023/10/22 04:42:21;;;;;;;;;0.75;0.00;;;;;;;;5081251;28;45795;-78
2023/10/22 04:44:47;;;;;;;;;1.75;0.75;;;;;;;;5079829;28;46039;-79
2023/10/22 04:47:12;;;;;;;;;2.00;1.50;;;;;;;;5080567;28;45969;-79
2023/10/22 04:49:37;;;;;;;;;2.00;1.00;;;;;;;;5079432;28;45488;-80
2023/10/22 04:52:03;;;;;;;;;2.00;2.00;;;;;;;;5080773;28;45372;-78
2023/10/22 04:54:28;;;;;;;;;2.50;0.00;;;;;;;;5080514;28;46717;-79
2023/10/22 04:56:53;;;;;;;;;1.00;1.00;;;;;;;;5079183;28;47415;-79
2023/10/22 04:59:19;;;;;;;;;1.00;1.00;;;;;;;;5080959;28;45500;-78
2023/10/22 05:01:44;;;;;;;;;1.50;1.25;;;;;;;;5080159;27;45282;-80
2023/10/22 05:04:09;;;;;;;;;3.25;2.00;;;;;;;;5080565;28;45427;-80
2023/10/22 05:06:34;;;;;;;;;1.00;1.00;;;;;;;;5080322;28;45496;-80
2023/10/22 05:09:01;;;;;;;;;1.25;1.25;;;;;;;;5080439;28;45334;-79
2023/10/22 05:11:26;;;;;;;;;2.50;2.50;;;;;;;;5078334;28;45444;-79
2023/10/22 05:13:51;;;;;;;;;2.00;2.00;;;;;;;;5080412;27;45359;-78
2023/10/22 05:16:17;;;;;;;;;0.25;0.25;;;;;;;;5080332;27;46212;-81
2023/10/22 05:18:42;;;;;;;;;1.75;1.75;;;;;;;;5078687;28;45347;-80
2023/10/22 05:21:07;;;;;;;;;0.75;0.00;;;;;;;;5068464;28;45117;-79
2023/10/22 05:23:33;;;;;;;;;1.00;1.00;;;;;;;;5060029;28;45377;-80
2023/10/22 05:26:06;;;;;;;;;3.50;1.25;;;;;;;;5058569;28;46958;-81
2023/10/22 05:28:31;;;;;;;;;2.00;1.50;;;;;;;;5066451;27;46205;-81
2023/10/22 05:30:56;;;;;;;;;0.75;0.75;;;;;;;;5087955;27;45776;-80
2023/10/22 05:33:21;;;;;;;;;2.00;1.25;;;;;;;;5079428;28;46471;-81
2023/10/22 05:35:46;;;;;;;;;1.00;1.00;;;;;;;;5079011;28;48493;-82
2023/10/22 05:38:11;;;;;;;;;0.50;0.50;;;;;;;;5080036;28;45339;-80
2023/10/22 05:40:37;;;;;;;;;2.75;2.00;;;;;;;;5080603;28;45159;-82
2023/10/22 05:43:02;;;;;;;;;1.50;1.00;;;;;;;;5079982;28;45194;-81
2023/10/22 05:45:28;;;;;;;;;0.50;0.50;;;;;;;;5079185;28;45153;-83
2023/10/22 05:47:53;;;;;;;;;2.00;2.00;;;;;;;;5072168;28;45749;-80
2023/10/22 05:50:18;;;;;;;;;1.00;1.00;;;;;;;;5065638;28;45250;-80
2023/10/22 05:52:43;;;;;;;;;1.00;0.75;;;;;;;;5059515;28;45199;-80
2023/10/22 05:55:08;;;;;;;;;1.75;1.75;;;;;;;;5059420;28;46479;-81
2023/10/22 05:57:33;;;;;;;;;1.75;0.25;;;;;;;;5059627;28;45353;-79
2023/10/22 05:59:59;;;;;;;;;1.00;1.00;;;;;;;;5058242;28;45588;-84
2023/10/22 06:02:24;;;;;;;;;0.50;0.50;;;;;;;;5058389;28;47153;-79
2023/10/22 06:04:49;;;;;;;;;5.25;3.00;;;;;;;;5058904;28;45834;-79
2023/10/22 06:07:14;;;;;;;;;1.00;1.00;;;;;;;;5057739;28;45339;-79
2023/10/22 06:09:40;;;;;;;;;2.67;2.00;;;;;;;;5062118;28;45271;-84
2023/10/22 06:12:05;;;;;;;;;0.75;0.75;;;;;;;;5077946;28;45948;-79
2023/10/22 06:14:30;;;;;;;;;2.00;0.50;;;;;;;;5076643;28;45255;-80
2023/10/22 06:16:55;;;;;;;;;0.50;0.00;;;;;;;;5068128;28;45463;-81
2023/10/22 06:19:20;;;;;;;;;2.25;1.00;;;;;;;;5071690;28;45139;-80
2023/10/22 06:21:46;;;;;;;;;1.00;1.00;;;;;;;;5070279;28;45418;-81
2023/10/22 06:24:12;;;;;;;;;1.00;1.00;;;;;;;;5066799;28;48333;-82
2023/10/22 06:26:37;;;;;;;;;4.00;0.25;;;;;;;;5076808;28;45335;-80
2023/10/22 06:29:02;;;;;;;;;2.00;2.00;;;;;;;;5070186;27;45289;-82
2023/10/22 06:31:27;;;;;;;;;1.25;1.25;;;;;;;;5068931;28;45405;-80
2023/10/22 06:33:52;;;;;;;;;3.75;1.75;;;;;;;;5066517;28;46386;-80
2023/10/22 06:36:18;;;;;;;;;3.00;1.50;;;;;;;;5067960;28;45251;-80
2023/10/22 06:38:45;;;;;;;;;1.25;1.00;;;;;;;;5075980;28;45390;-81
2023/10/22 06:41:14;;;;;;;;;3.00;1.75;;;;;;;;5080704;28;45309;-79
2023/10/22 06:43:40;;;;;;;;;0.25;0.00;;;;;;;;5078505;28;48357;-81
2023/10/22 06:46:05;;;;;;;;;2.50;2.50;;;;;;;;5078101;28;45271;-81
2023/10/22 06:48:30;;;;;;;;;2.75;1.50;;;;;;;;5077840;28;45384;-83
2023/10/22 06:50:58;;;;;;;;;0.75;0.75;;;;;;;;5078934;28;45405;-84
2023/10/22 06:53:24;;;;;;;;;2.25;0.50;;;;;;;;5077129;27;46859;-83
2023/10/22 06:55:49;;;;;;;;;1.00;0.50;;;;;;;;5078911;28;45378;-81
2023/10/22 06:58:15;;;;;;;;;3.25;3.00;;;;;;;;5082547;28;45294;-81
2023/10/22 07:00:41;;;;;;;;;0.50;0.50;;;;;;;;5082859;28;45443;-82
2023/10/22 07:03:06;;;;;;;;;2.00;1.00;;;;;;;;5082576;28;45566;-85
2023/10/22 07:05:31;;;;;;;;;1.25;1.00;;;;;;;;5081066;28;45310;-83
2023/10/22 07:07:56;;;;;;;;;2.00;1.00;;;;;;;;5083985;28;45323;-82
2023/10/22 07:10:22;;;;;;;;;0.50;0.50;;;;;;;;5082136;28;45957;-85
2023/10/22 07:13:01;;;;;;;;;1.00;1.00;;;;;;;;5065886;28;48492;-82
2023/10/22 07:15:26;;;;;;;;;1.25;1.00;;;;;;;;5063015;28;45264;-82
2023/10/22 07:17:51;;;;;;;;;0.25;0.25;;;;;;;;5062369;28;45364;-79
2023/10/22 07:20:17;;;;;;;;;1.50;1.50;;;;;;;;5061004;28;46063;-80
2023/10/22 07:22:42;;;;;;;;;0.00;0.00;;;;;;;;5062615;28;45480;-82
2023/10/22 07:25:08;;;;;;;;;2.75;0.75;;;;;;;;5061879;28;45287;-80
2023/10/22 07:27:33;;;;;;;;;3.00;2.75;;;;;;;;5062287;28;45819;-82
2023/10/22 07:29:58;;;;;;;;;2.00;2.00;;;;;;;;5091290;27;45438;-82
2023/10/22 07:32:23;;;;;;;;;1.00;1.00;;;;;;;;5102432;27;45370;-80
2023/10/22 07:34:48;;;;;;;;;1.50;1.50;;;;;;;;5089429;27;45311;-79
2023/10/22 07:37:14;;;;;;;;;1.25;1.25;;;;;;;;5078915;28;45401;-79
2023/10/22 07:39:39;;;;;;;;;0.75;0.75;;;;;;;;5081941;28;45345;-81
2023/10/22 07:42:04;;;;;;;;;3.00;3.00;;;;;;;;5080296;28;48464;-79
2023/10/22 07:44:29;;;;;;;;;1.50;1.50;;;;;;;;5081767;28;45467;-78
2023/10/22 07:46:54;;;;;;;;;4.00;3.75;;;;;;;;5080481;28;45362;-79
2023/10/22 07:49:21;;;;;;;;;3.00;3.00;;;;;;;;5081927;27;46420;-80
2023/10/22 07:51:46;;;;;;;;;1.25;1.25;;;;;;;;5079833;28;48498;-79
2023/10/22 07:54:12;;;;;;;;;2.50;2.00;;;;;;;;5080375;28;45295;-80
2023/10/22 07:56:37;;;;;;;;;1.00;1.00;;;;;;;;5080476;28;45327;-80
2023/10/22 07:59:02;;;;;;;;;1.50;1.00;;;;;;;;5081483;28;45417;-79
2023/10/22 08:01:28;;;;;;;;;1.25;1.25;;;;;;;;5063840;28;47407;-83
2023/10/22 08:03:53;;;;;;;;;1.25;1.25;;;;;;;;5061078;28;45356;-81
2023/10/22 08:06:18;;;;;;;;;3.75;1.50;;;;;;;;5063887;28;45216;-80
2023/10/22 08:08:43;;;;;;;;;2.00;1.67;;;;;;;;5079144;28;46366;-80
2023/10/22 08:11:08;;;;;;;;;4.00;3.00;;;;;;;;5081963;28;46358;-81
2023/10/22 08:13:34;;;;;;;;;2.75;1.00;;;;;;;;5081710;28;45357;-83
2023/10/22 08:16:03;;;;;;;;;2.00;2.00;;;;;;;;5080254;28;45365;-82
2023/10/22 08:18:28;;;;;;;;;1.00;0.00;;;;;;;;5077734;28;45279;-79
2023/10/22 08:20:53;;;;;;;;;1.75;1.00;;;;;;;;5075359;28;45474;-78
2023/10/22 08:23:18;;;;;;;;;3.00;2.00;;;;;;;;5080704;28;45314;-79
2023/10/22 08:25:51;;;;;;;;;0.67;0.67;;;;;;;;5081585;27;45215;-79
2023/10/22 08:28:16;;;;;;;;;3.00;2.00;;;;;;;;5080443;28;47193;-78
2023/10/22 08:30:45;;;;;;;;;1.50;1.25;;;;;;;;5079542;28;46982;-76
2023/10/22 08:33:10;;;;;;;;;2.00;2.00;;;;;;;;5080452;28;45354;-76
2023/10/22 08:35:35;;;;;;;;;1.00;0.25;;;;;;;;5080895;28;45270;-76
2023/10/22 08:38:00;;;;;;;;;1.75;1.00;;;;;;;;5079033;28;47402;-78
2023/10/22 08:40:26;;;;;;;;;2.50;2.50;;;;;;;;5080230;28;45519;-76
2023/10/22 08:42:53;;;;;;;;;4.50;2.00;;;;;;;;5079504;28;45415;-77
2023/10/22 08:45:19;;;;;;;;;3.75;3.00;;;;;;;;5079332;28;45377;-75
2023/10/22 08:47:44;;;;;;;;;7.00;2.00;;;;;;;;5060818;28;45892;-77
2023/10/22 08:50:10;;;;;;;;;2.00;1.00;;;;;;;;5058099;28;46191;-79
2023/10/22 08:52:35;;;;;;;;;1.00;1.00;;;;;;;;5072739;28;45477;-79
2023/10/22 08:55:00;;;;;;;;;0.00;0.00;;;;;;;;5079339;28;45611;-81
2023/10/22 08:57:27;;;;;;;;;2.25;0.50;;;;;;;;5077135;28;46914;-82
2023/10/22 08:59:52;;;;;;;;;2.00;2.00;;;;;;;;5078389;28;47008;-78
2023/10/22 09:02:21;;;;;;;;;1.50;1.50;;;;;;;;5072764;28;45358;-78
2023/10/22 09:04:46;;;;;;;;;1.75;1.75;;;;;;;;5070189;28;45336;-79
2023/10/22 09:07:11;;;;;;;;;2.50;2.00;;;;;;;;5069119;28;45339;-78
2023/10/22 09:09:38;;;;;;;;;1.00;1.00;;;;;;;;5071021;28;45335;-79
2023/10/22 09:12:03;;;;;;;;;1.25;1.00;;;;;;;;5070873;28;45359;-78
2023/10/22 09:14:29;;;;;;;;;3.50;2.50;;;;;;;;5068801;28;45207;-78
2023/10/22 09:16:55;;;;;;;;;4.25;2.00;;;;;;;;5068385;28;46156;-79
2023/10/22 09:19:36;;;;;;;;;3.75;1.25;;;;;;;;5075340;28;45306;-78
2023/10/22 09:22:02;;;;;;;;;1.25;1.25;;;;;;;;5073919;28;45458;-80
2023/10/22 09:24:27;;;;;;;;;2.50;2.50;;;;;;;;5081998;28;45246;-79
2023/10/22 09:26:52;;;;;;;;;2.50;2.50;;;;;;;;5080333;28;45550;-76
2023/10/22 09:29:18;;;;;;;;;1.00;1.00;;;;;;;;5088575;27;45398;-80
2023/10/22 09:31:53;;;;;;;;;2.75;2.25;;;;;;;;5099209;27;45550;-79
2023/10/22 09:34:32;;;;;;;;;2.75;1.00;;;;;;;;5101429;27;45341;-78
2023/10/22 09:36:57;;;;;;;;;1.00;1.00;;;;;;;;5103001;27;45335;-78
2023/10/22 09:39:32;;;;;;;;;1.75;1.75;;;;;;;;5100887;27;45301;-83
2023/10/22 09:41:58;;;;;;;;;2.25;2.25;;;;;;;;5100197;27;45596;-81
2023/10/22 09:44:26;;;;;;;;;1.00;1.00;;;;;;;;5099825;27;45381;-79
2023/10/22 09:46:52;;;;;;;;;1.00;1.00;;;;;;;;5098734;27;46271;-80
2023/10/22 09:49:19;;;;;;;;;2.00;2.00;;;;;;;;5100087;27;46149;-81
2023/10/22 09:51:45;;;;;;;;;3.25;1.75;;;;;;;;5098711;27;45244;-84
2023/10/22 09:54:11;;;;;;;;;3.50;3.50;;;;;;;;5099114;27;45451;-79
2023/10/22 09:56:43;;;;;;;;;0.00;0.00;;;;;;;;5100190;27;45356;-80
2023/10/22 09:59:10;;;;;;;;;2.00;2.00;;;;;;;;5081122;27;45322;-79
2023/10/22 10:01:36;;;;;;;;;2.00;2.00;;;;;;;;5079924;28;45318;-81
2023/10/22 10:04:03;;;;;;;;;2.25;2.00;;;;;;;;5079693;28;45353;-80
2023/10/22 10:06:29;;;;;;;;;1.25;1.00;;;;;;;;5079112;28;45330;-80
2023/10/22 10:08:56;;;;;;;;;2.25;0.50;;;;;;;;5079333;28;45330;-80
2023/10/22 10:11:21;;;;;;;;;0.75;0.75;;;;;;;;5076907;28;45305;-79
2023/10/22 10:13:47;;;;;;;;;2.75;2.75;;;;;;;;5079608;28;45314;-81
2023/10/22 10:16:12;;;;;;;;;3.00;1.75;;;;;;;;5078034;28;46413;-80
2023/10/22 10:18:56;;;;;;;;;1.50;1.00;;;;;;;;5079362;28;45384;-79
2023/10/22 10:21:33;;;;;;;;;1.00;1.00;;;;;;;;5078045;28;45807;-78
2023/10/22 10:24:18;;;;;;;;;3.00;1.50;;;;;;;;5079457;28;45545;-78
2023/10/22 10:26:44;;;;;;;;;0.75;0.75;;;;;;;;5079361;28;45538;-77
2023/10/22 10:29:13;;;;;;;;;2.75;2.75;;;;;;;;5084964;27;48117;-76
2023/10/22 10:31:47;;;;;;;;;4.00;4.00;;;;;;;;5099270;27;45382;-76
2023/10/22 10:34:27;;;;;;;;;4.75;2.00;;;;;;;;5104114;27;45278;-78
2023/10/22 10:36:52;;;;;;;;;2.00;2.00;;;;;;;;5101886;27;46153;-76
2023/10/22 10:39:36;;;;;;;;;1.00;1.00;;;;;;;;5103294;27;45240;-76
2023/10/22 10:42:02;;;;;;;;;4.67;4.00;;;;;;;;5103268;27;45300;-78
2023/10/22 10:44:30;;;;;;;;;4.50;4.50;;;;;;;;5101904;27;45599;-77
2023/10/22 10:47:14;;;;;;;;;4.25;3.00;;;;;;;;5103039;27;45245;-75
2023/10/22 10:50:07;;;;;;;;;1.00;1.00;;;;;;;;5102824;27;46366;-77
2023/10/22 10:52:41;;;;;;;;;2.00;2.00;;;;;;;;5102859;27;45318;-78
2023/10/22 10:55:27;;;;;;;;;2.75;1.75;;;;;;;;5101916;27;45487;-77
2023/10/22 10:57:53;;;;;;;;;1.50;1.50;;;;;;;;5090343;27;45206;-79
2023/10/22 11:00:38;;;;;;;;;3.00;2.00;;;;;;;;5082329;28;45895;-84
2023/10/22 11:03:04;;;;;;;;;1.50;1.00;;;;;;;;5078659;28;45569;-78
2023/10/22 11:05:39;;;;;;;;;1.00;1.00;;;;;;;;5080569;28;45341;-80
2023/10/22 11:08:11;;;;;;;;;1.75;1.50;;;;;;;;5080420;28;45366;-79
2023/10/22 11:10:36;;;;;;;;;1.75;1.75;;;;;;;;5071703;28;45527;-79
2023/10/22 11:13:02;;;;;;;;;3.00;1.75;;;;;;;;5061820;28;45400;-79
2023/10/22 11:15:30;;;;;;;;;1.00;1.00;;;;;;;;5065233;28;45335;-79
2023/10/22 11:18:00;;;;;;;;;2.00;2.00;;;;;;;;5072945;27;46177;-80
2023/10/22 11:20:25;;;;;;;;;2.75;2.75;;;;;;;;5081275;28;46318;-79
2023/10/22 11:22:50;;;;;;;;;1.25;1.25;;;;;;;;5072475;28;45404;-81
2023/10/22 11:25:19;;;;;;;;;1.00;0.50;;;;;;;;5070058;28;45335;-79
2023/10/22 11:27:44;;;;;;;;;1.50;1.50;;;;;;;;5081562;28;45344;-79
2023/10/22 11:30:09;;;;;;;;;0.00;0.00;;;;;;;;5086306;27;46300;-82
2023/10/22 11:32:35;;;;;;;;;3.00;3.00;;;;;;;;5080238;28;45244;-81
2023/10/22 11:35:02;;;;;;;;;0.25;0.25;;;;;;;;5080110;28;45292;-80
2023/10/22 11:37:27;;;;;;;;;2.33;1.67;;;;;;;;5081440;28;45369;-79
2023/10/22 11:39:52;;;;;;;;;3.50;3.50;;;;;;;;5081231;28;45543;-79
2023/10/22 11:42:17;;;;;;;;;4.25;3.50;;;;;;;;5079537;28;45842;-81
2023/10/22 11:44:43;;;;;;;;;1.75;1.75;;;;;;;;5081836;28;45286;-79
2023/10/22 11:47:24;;;;;;;;;4.33;3.33;;;;;;;;5080943;28;45372;-80
2023/10/22 11:49:49;;;;;;;;;3.67;3.33;;;;;;;;5081156;28;45308;-79
2023/10/22 11:52:38;;;;;;;;;4.25;2.50;;;;;;;;5080939;28;45335;-80
2023/10/22 11:55:07;;;;;;;;;2.25;2.00;;;;;;;;5079866;27;45489;-80
2023/10/22 11:57:33;;;;;;;;;2.50;1.25;;;;;;;;5081517;28;45561;-79
2023/10/22 11:59:58;;;;;;;;;1.75;1.25;;;;;;;;5074676;28;45329;-79
2023/10/22 12:02:23;;;;;;;;;3.25;3.25;;;;;;;;5076864;28;45227;-80
2023/10/22 12:04:48;;;;;;;;;3.00;3.00;;;;;;;;5079449;28;45739;-79
2023/10/22 12:07:14;;;;;;;;;3.00;2.00;;;;;;;;5073226;28;46978;-79
2023/10/22 12:09:43;;;;;;;;;0.75;0.00;;;;;;;;5060913;28;45398;-80
2023/10/22 12:12:08;;;;;;;;;2.75;2.00;;;;;;;;5074060;28;45443;-78
2023/10/22 12:14:33;;;;;;;;;2.00;2.00;;;;;;;;5081263;28;45309;-77
2023/10/22 12:16:58;;;;;;;;;1.50;1.50;;;;;;;;5072801;28;45390;-78
2023/10/22 12:19:24;;;;;;;;;1.25;1.25;;;;;;;;5074659;28;46054;-77
2023/10/22 12:21:49;;;;;;;;;2.25;1.00;;;;;;;;5074017;28;45401;-78
2023/10/22 12:24:14;;;;;;;;;2.50;1.25;;;;;;;;5070747;28;45857;-78
2023/10/22 12:26:39;;;;;;;;;1.00;1.00;;;;;;;;5074687;28;45351;-78
2023/10/22 12:29:05;;;;;;;;;1.25;0.25;;;;;;;;5084554;27;45429;-77
2023/10/22 12:31:30;;;;;;;;;1.00;1.00;;;;;;;;5079838;27;45484;-78
2023/10/22 12:33:55;;;;;;;;;3.50;3.00;;;;;;;;5067376;28;45452;-79
2023/10/22 12:36:20;;;;;;;;;3.00;1.00;;;;;;;;5068647;28;45370;-79
2023/10/22 12:38:45;;;;;;;;;2.25;1.50;;;;;;;;5071287;27;45455;-80
2023/10/22 12:41:11;;;;;;;;;2.00;1.75;;;;;;;;5075259;28;45872;-81
2023/10/22 12:43:36;;;;;;;;;4.00;2.50;;;;;;;;5085980;28;44672;-81
2023/10/22 12:46:03;;;;;;;;;2.00;2.00;;;;;;;;5066893;28;45943;-80
2023/10/22 12:48:28;;;;;;;;;2.75;2.75;;;;;;;;5081685;28;47242;-80
2023/10/22 12:50:53;;;;;;;;;0.50;0.50;;;;;;;;5085995;28;45422;-79
2023/10/22 12:53:18;;;;;;;;;2.00;2.00;;;;;;;;5077196;28;45299;-79
2023/10/22 12:55:51;;;;;;;;;3.75;2.75;;;;;;;;5088487;28;46162;-79
2023/10/22 12:58:16;;;;;;;;;3.50;3.50;;;;;;;;5081982;28;45398;-77
2023/10/22 13:00:41;;;;;;;;;3.00;3.00;;;;;;;;5074903;28;45844;-78
2023/10/22 13:03:06;;;;;;;;;1.00;1.00;;;;;;;;5070002;28;45638;-77
2023/10/22 13:05:33;;;;;;;;;3.25;2.00;;;;;;;;5077317;28;45477;-80
2023/10/22 13:07:58;;;;;;;;;2.50;2.00;;;;;;;;5079715;28;45312;-79
2023/10/22 13:10:24;;;;;;;;;3.75;2.75;;;;;;;;5078228;28;45485;-78
2023/10/22 13:12:49;;;;;;;;;3.00;1.25;;;;;;;;5081218;27;45399;-80
2023/10/22 13:15:14;;;;;;;;;3.00;2.00;;;;;;;;5068931;28;45478;-79
2023/10/22 13:17:40;;;;;;;;;1.50;1.50;;;;;;;;5079081;28;46799;-80
2023/10/22 13:20:05;;;;;;;;;4.00;2.00;;;;;;;;5078125;28;45342;-81
2023/10/22 13:22:31;;;;;;;;;5.25;1.75;;;;;;;;5070660;27;45238;-80
2023/10/22 13:24:56;;;;;;;;;2.00;2.00;;;;;;;;5080186;28;46450;-78
2023/10/22 13:27:22;;;;;;;;;2.75;2.00;;;;;;;;5082048;28;47197;-80
2023/10/22 13:29:47;;;;;;;;;3.75;3.00;;;;;;;;5086780;27;45939;-82
2023/10/22 13:32:12;;;;;;;;;0.75;0.50;;;;;;;;5081972;28;45477;-80
2023/10/22 13:34:37;;;;;;;;;2.25;1.00;;;;;;;;5083407;28;46242;-83
2023/10/22 13:37:03;;;;;;;;;3.25;2.00;;;;;;;;5064066;28;45601;-80
2023/10/22 13:39:28;;;;;;;;;0.25;0.25;;;;;;;;5079206;28;45408;-81
2023/10/22 13:41:53;;;;;;;;;2.75;1.00;;;;;;;;5080331;28;45535;-81
2023/10/22 13:44:18;;;;;;;;;2.25;1.00;;;;;;;;5072924;28;45483;-80
2023/10/22 13:46:44;;;;;;;;;0.50;0.25;;;;;;;;5077666;28;47101;-81
2023/10/22 13:49:09;;;;;;;;;2.00;1.00;;;;;;;;5079104;28;45597;-79
2023/10/22 13:51:34;;;;;;;;;2.25;1.75;;;;;;;;5080251;28;45517;-83
2023/10/22 13:53:59;;;;;;;;;0.00;0.00;;;;;;;;5082438;28;45358;-82
2023/10/22 13:56:24;;;;;;;;;2.75;1.50;;;;;;;;5079444;28;45309;-82
2023/10/22 13:58:49;;;;;;;;;1.25;1.25;;;;;;;;5083010;28;45402;-83
2023/10/22 14:01:15;;;;;;;;;0.75;0.75;;;;;;;;5080233;28;45465;-87
2023/10/22 14:03:42;;;;;;;;;3.25;2.25;;;;;;;;5083587;28;45359;-83
2023/10/22 14:06:07;;;;;;;;;1.75;0.75;;;;;;;;5077754;28;45741;-84
2023/10/22 14:08:32;;;;;;;;;2.00;1.25;;;;;;;;5078955;28;45329;-81
2023/10/22 14:10:57;;;;;;;;;4.00;2.00;;;;;;;;5090649;28;45521;-81
2023/10/22 14:13:23;;;;;;;;;3.00;1.00;;;;;;;;5088010;28;46512;-82
2023/10/22 14:15:48;;;;;;;;;2.75;1.00;;;;;;;;5087946;28;47899;-81
2023/10/22 14:18:13;;;;;;;;;1.75;1.75;;;;;;;;5092796;28;45292;-80
2023/10/22 14:20:39;;;;;;;;;0.75;0.75;;;;;;;;5090573;28;45350;-82
2023/10/22 14:23:04;;;;;;;;;1.00;1.00;;;;;;;;5084835;28;47259;-81
2023/10/22 14:25:29;;;;;;;;;2.25;2.25;;;;;;;;5085993;28;45254;-82
2023/10/22 14:27:54;;;;;;;;;3.50;2.75;;;;;;;;5085656;28;45413;-81
2023/10/22 14:30:19;;;;;;;;;2.00;1.00;;;;;;;;5093398;27;45420;-78
2023/10/22 14:32:45;;;;;;;;;4.00;3.50;;;;;;;;5088505;28;45346;-80
2023/10/22 14:35:10;;;;;;;;;1.50;1.50;;;;;;;;5088386;28;45513;-81
2023/10/22 14:37:36;;;;;;;;;2.50;1.25;;;;;;;;5085192;28;45575;-80